createdAt,value
2023-05-11T00:02:25.850Z,79.62
2023-05-11T00:05:27.503Z,79.55
2023-05-11T00:08:29.078Z,79.47
2023-05-11T00:11:31.168Z,79.74
2023-05-11T00:14:32.748Z,79.76
2023-05-11T00:17:34.322Z,79.27
2023-05-11T00:20:36.028Z,80.17
2023-05-11T00:23:37.591Z,79.16
2023-05-11T00:26:39.214Z,79.51
2023-05-11T00:29:40.824Z,79.32
2023-05-11T00:32:43.489Z,79.75
2023-05-11T00:35:45.118Z,79.59
2023-05-11T00:38:46.696Z,80.11
2023-05-11T00:41:48.267Z,79.98
2023-05-11T00:44:49.928Z,79.00
2023-05-11T00:47:51.644Z,79.08
2023-05-11T00:50:53.758Z,78.62
2023-05-11T00:53:55.545Z,75.85
2023-05-11T00:56:57.328Z,72.80
2023-05-11T01:00:01.630Z,73.16
2023-05-11T01:03:03.712Z,70.77
2023-05-11T01:06:42.620Z,71.42
2023-05-11T01:09:53.738Z,70.42
2023-05-11T01:13:19.049Z,70.04
2023-05-11T01:16:24.681Z,68.86
2023-05-11T01:19:32.235Z,67.79
2023-05-11T01:22:33.718Z,63.00
2023-05-11T01:25:56.906Z,62.44
2023-05-11T01:29:13.376Z,0.00
2023-05-11T01:32:24.192Z,0.00
2023-05-11T01:35:28.369Z,0.00
2023-05-11T01:38:34.854Z,0.00
2023-05-11T01:41:39.311Z,0.00
2023-05-11T01:44:44.473Z,0.00
2023-05-11T01:47:50.110Z,0.00
2023-05-11T01:50:52.947Z,0.00
2023-05-11T01:53:56.240Z,0.00
2023-05-11T01:56:59.425Z,0.00
2023-05-11T02:00:02.294Z,0.00
2023-05-11T02:03:06.320Z,0.00
2023-05-11T02:06:09.685Z,0.00
2023-05-11T02:09:12.797Z,0.00
2023-05-11T02:12:18.145Z,0.00
2023-05-11T02:15:24.283Z,0.00
2023-05-11T02:18:27.780Z,0.00
2023-05-11T02:21:31.838Z,0.00
2023-05-11T02:24:34.511Z,0.00
2023-05-11T02:27:36.147Z,0.00
2023-05-11T02:30:46.250Z,0.00
2023-05-11T02:33:52.500Z,0.00
2023-05-11T02:36:58.796Z,0.00
2023-05-11T02:40:06.440Z,0.00
2023-05-11T02:43:11.530Z,0.00
2023-05-11T02:46:19.692Z,0.00
2023-05-11T02:49:23.905Z,0.00
2023-05-11T02:52:28.201Z,0.00
2023-05-11T02:55:31.278Z,0.00
2023-05-11T02:58:33.172Z,0.00
2023-05-11T03:01:35.323Z,0.00
2023-05-11T03:04:36.925Z,0.00
2023-05-11T03:07:38.610Z,0.00
2023-05-11T03:10:41.975Z,0.00
2023-05-11T03:13:44.772Z,0.00
2023-05-11T03:16:47.929Z,0.00
2023-05-11T03:19:50.925Z,0.00
2023-05-11T03:22:53.430Z,0.00
2023-05-11T03:25:56.203Z,0.00
2023-05-11T03:28:59.040Z,0.00
2023-05-11T03:32:00.706Z,0.00
2023-05-11T03:35:02.762Z,0.00
2023-05-11T03:38:06.209Z,0.00
2023-05-11T03:41:08.252Z,0.00
2023-05-11T03:44:11.919Z,0.00
2023-05-11T03:47:16.066Z,0.00
2023-05-11T03:50:18.011Z,0.00
2023-05-11T03:53:20.214Z,0.00
2023-05-11T03:56:21.949Z,0.00
2023-05-11T03:59:23.979Z,0.00
2023-05-11T04:02:26.020Z,0.00
2023-05-11T04:05:27.698Z,0.00
2023-05-11T04:08:29.654Z,0.00
2023-05-11T04:11:31.285Z,0.00
2023-05-11T04:14:32.922Z,0.00
2023-05-11T04:17:34.655Z,0.00
2023-05-11T04:20:36.241Z,0.00
2023-05-11T04:23:38.269Z,0.00
2023-05-11T04:26:39.836Z,0.00
2023-05-11T04:29:41.446Z,0.00
2023-05-11T04:32:43.047Z,0.00
2023-05-11T04:35:44.630Z,0.00
2023-05-11T04:38:46.216Z,0.00
2023-05-11T04:41:47.785Z,0.00
2023-05-11T04:44:52.502Z,0.00
2023-05-11T04:47:54.568Z,0.00
2023-05-11T04:50:56.674Z,0.00
2023-05-11T04:53:58.823Z,0.00
2023-05-11T04:57:00.490Z,0.00
2023-05-11T05:00:02.103Z,0.00
2023-05-11T05:03:04.486Z,0.00
2023-05-11T05:06:06.281Z,0.00
2023-05-11T05:09:07.891Z,0.00
2023-05-11T05:12:09.439Z,0.00
2023-05-11T05:15:12.246Z,0.00
2023-05-11T05:18:13.901Z,0.00
2023-05-11T05:21:15.509Z,0.00
2023-05-11T05:24:17.103Z,0.00
2023-05-11T05:27:18.681Z,0.00
2023-05-11T05:30:20.702Z,0.00
2023-05-11T05:33:22.471Z,72.76
2023-05-11T05:36:24.036Z,70.21
2023-05-11T05:39:25.624Z,69.74
2023-05-11T05:42:27.213Z,67.18
2023-05-11T05:45:28.761Z,66.64
2023-05-11T05:48:30.510Z,65.56
2023-05-11T05:51:32.728Z,63.59
2023-05-11T05:54:34.334Z,63.73
2023-05-11T05:57:35.909Z,63.33
2023-05-11T06:00:37.594Z,62.29
2023-05-11T06:03:40.150Z,63.61
2023-05-11T06:06:42.085Z,63.31
2023-05-11T06:09:43.703Z,63.06
2023-05-11T06:12:45.271Z,61.84
2023-05-11T06:15:46.851Z,62.37
2023-05-11T06:18:48.966Z,61.98
2023-05-11T06:21:50.661Z,61.89
2023-05-11T06:24:52.226Z,59.80
2023-05-11T06:27:53.987Z,60.29
2023-05-11T06:30:59.301Z,58.37
2023-05-11T06:34:00.900Z,56.42
2023-05-11T06:37:02.618Z,56.13
2023-05-11T06:40:04.506Z,55.51
2023-05-11T06:43:06.525Z,55.49
2023-05-11T06:46:08.197Z,55.35
2023-05-11T06:49:09.817Z,55.79
2023-05-11T06:52:11.420Z,54.58
2023-05-11T06:55:14.420Z,53.60
2023-05-11T06:58:17.092Z,53.96
2023-05-11T07:01:18.713Z,53.04
2023-05-11T07:04:20.458Z,51.76
2023-05-11T07:07:22.769Z,50.37
2023-05-11T07:10:24.723Z,49.37
2023-05-11T07:13:26.331Z,48.24
2023-05-11T07:16:27.926Z,48.40
2023-05-11T07:19:29.572Z,49.50
2023-05-11T07:22:31.139Z,46.86
2023-05-11T07:25:33.078Z,46.83
2023-05-11T07:28:38.056Z,46.50
2023-05-11T07:31:39.768Z,45.96
2023-05-11T07:34:41.715Z,46.44
2023-05-11T07:37:43.309Z,46.44
2023-05-11T07:40:44.899Z,46.03
2023-05-11T07:43:46.522Z,45.93
2023-05-11T07:46:48.323Z,47.67
2023-05-11T07:49:50.453Z,45.63
2023-05-11T07:52:52.245Z,46.30
2023-05-11T07:55:53.817Z,43.29
2023-05-11T07:58:55.509Z,44.81
2023-05-11T08:01:57.158Z,44.32
2023-05-11T08:04:58.936Z,43.88
2023-05-11T08:08:00.478Z,42.61
2023-05-11T08:11:02.223Z,42.06
2023-05-11T08:14:03.879Z,40.76
2023-05-11T08:17:05.758Z,41.26
2023-05-11T08:20:08.648Z,40.97
2023-05-11T08:23:10.955Z,41.96
2023-05-11T08:26:12.503Z,39.75
2023-05-11T08:29:16.237Z,39.60
2023-05-11T08:32:17.955Z,40.68
2023-05-11T08:35:19.834Z,37.89
2023-05-11T08:38:21.632Z,39.29
2023-05-11T08:41:23.340Z,39.02
2023-05-11T08:44:26.375Z,36.97
2023-05-11T08:47:28.914Z,36.16
2023-05-11T08:50:30.566Z,36.39
2023-05-11T08:53:32.698Z,36.14
2023-05-11T08:56:36.280Z,36.47
2023-05-11T08:59:38.511Z,35.13
2023-05-11T09:02:40.884Z,35.32
2023-05-11T09:05:44.968Z,34.78
2023-05-11T09:08:47.082Z,34.36
2023-05-11T09:11:49.759Z,33.44
2023-05-11T09:14:52.748Z,32.76
2023-05-11T09:17:54.329Z,32.05
2023-05-11T09:20:55.966Z,31.48
2023-05-11T09:23:59.267Z,31.79
2023-05-11T09:27:09.194Z,31.64
2023-05-11T09:30:22.149Z,30.80
2023-05-11T09:33:25.875Z,30.55
2023-05-11T09:36:27.475Z,30.64
2023-05-11T09:39:42.066Z,29.81
2023-05-11T09:42:56.234Z,29.49
2023-05-11T09:46:04.714Z,30.23
2023-05-11T09:49:06.839Z,28.69
2023-05-11T09:52:10.478Z,28.79
2023-05-11T09:55:12.033Z,30.43
2023-05-11T09:58:13.562Z,30.19
2023-05-11T10:01:16.435Z,30.59
2023-05-11T10:04:23.419Z,28.52
2023-05-11T10:07:27.275Z,28.95
2023-05-11T10:10:30.329Z,29.74
2023-05-11T10:13:32.898Z,29.62
2023-05-11T10:16:35.592Z,29.89
2023-05-11T10:19:38.132Z,28.09
2023-05-11T10:22:40.105Z,27.92
2023-05-11T10:25:42.597Z,28.18
2023-05-11T10:28:44.156Z,30.46
2023-05-11T10:31:48.323Z,27.53
2023-05-11T10:34:52.769Z,27.45
2023-05-11T10:37:54.733Z,29.50
2023-05-11T10:41:07.636Z,29.55
2023-05-11T10:44:27.417Z,28.98
2023-05-11T10:47:34.867Z,27.83
2023-05-11T10:50:48.446Z,29.72
2023-05-11T10:54:35.515Z,29.08
2023-05-11T10:58:05.018Z,28.95
2023-05-11T11:01:42.037Z,28.57
2023-05-11T11:04:50.573Z,26.39
2023-05-11T11:08:07.353Z,26.40
2023-05-11T11:11:34.974Z,26.63
2023-05-11T11:14:55.020Z,26.86
2023-05-11T11:18:23.490Z,26.61
2023-05-11T11:21:42.752Z,25.39
2023-05-11T11:24:45.878Z,24.90
2023-05-11T11:27:54.973Z,24.29
2023-05-11T11:31:28.055Z,25.78
2023-05-11T11:34:29.865Z,24.38
2023-05-11T11:38:02.374Z,25.45
2023-05-11T11:41:08.389Z,25.78
2023-05-11T11:44:21.801Z,25.91
2023-05-11T11:47:26.220Z,25.52
2023-05-11T11:50:28.393Z,25.46
2023-05-11T11:53:36.001Z,26.41
2023-05-11T11:56:39.137Z,26.43
2023-05-11T11:59:49.743Z,27.08
2023-05-11T12:02:52.193Z,25.86
2023-05-11T12:06:00.666Z,26.34
2023-05-11T12:09:02.265Z,27.14
2023-05-11T12:12:06.228Z,27.08
2023-05-11T12:15:08.756Z,28.95
2023-05-11T12:18:21.280Z,28.56
2023-05-11T12:21:23.622Z,26.63
2023-05-11T12:24:25.362Z,28.17
2023-05-11T12:27:26.938Z,27.68
2023-05-11T12:30:30.690Z,27.42
2023-05-11T12:33:32.321Z,28.41
2023-05-11T12:36:35.250Z,26.72
2023-05-11T12:39:37.750Z,27.14
2023-05-11T12:42:39.352Z,26.36
2023-05-11T12:45:40.942Z,25.99
2023-05-11T12:48:43.079Z,27.72
2023-05-11T12:51:59.718Z,29.81
2023-05-11T12:55:01.586Z,28.76
2023-05-11T12:58:13.726Z,29.47
2023-05-11T13:01:15.503Z,28.71
2023-05-11T13:04:17.246Z,29.74
2023-05-11T13:07:28.401Z,30.37
2023-05-11T13:10:30.553Z,31.34
2023-05-11T13:13:32.556Z,31.85
2023-05-11T13:16:34.554Z,33.88
2023-05-11T13:19:37.690Z,32.95
2023-05-11T13:22:39.392Z,33.08
2023-05-11T13:25:49.760Z,33.63
2023-05-11T13:29:05.894Z,33.38
2023-05-11T13:32:12.381Z,34.06
2023-05-11T13:35:14.015Z,34.14
2023-05-11T13:38:15.778Z,34.46
2023-05-11T13:41:17.388Z,34.03
2023-05-11T13:44:19.067Z,35.42
2023-05-11T13:47:20.642Z,35.47
2023-05-11T13:50:26.311Z,36.99
2023-05-11T13:53:28.199Z,35.47
2023-05-11T13:56:29.964Z,35.82
2023-05-11T13:59:31.608Z,36.25
2023-05-11T14:02:33.260Z,37.86
2023-05-11T14:05:36.281Z,37.62
2023-05-11T14:08:38.984Z,36.51
2023-05-11T14:11:40.699Z,38.05
2023-05-11T14:14:42.423Z,37.31
2023-05-11T14:17:44.184Z,37.21
2023-05-11T14:20:46.035Z,38.24
2023-05-11T14:24:02.069Z,38.42
2023-05-11T14:27:09.116Z,37.72
2023-05-11T14:30:10.979Z,39.73
2023-05-11T14:33:12.647Z,43.55
2023-05-11T14:36:14.291Z,43.21
2023-05-11T14:39:15.996Z,42.75
2023-05-11T14:42:18.486Z,43.84
2023-05-11T14:45:20.484Z,45.42
2023-05-11T14:48:22.650Z,45.24
2023-05-11T14:51:24.218Z,44.24
2023-05-11T14:54:25.977Z,44.84
2023-05-11T14:57:27.591Z,44.45
2023-05-11T15:00:29.140Z,46.92
2023-05-11T15:03:31.052Z,47.09
2023-05-11T15:06:33.157Z,46.08
2023-05-11T15:09:35.812Z,47.29
2023-05-11T15:12:37.382Z,47.65
2023-05-11T15:15:38.964Z,45.11
2023-05-11T15:18:42.275Z,46.08
2023-05-11T15:21:44.598Z,47.13
2023-05-11T15:24:46.210Z,44.03
2023-05-11T15:27:47.952Z,45.70
2023-05-11T15:30:49.511Z,43.97
2023-05-11T15:33:51.148Z,46.11
2023-05-11T15:36:52.722Z,45.85
2023-05-11T15:39:54.299Z,46.50
2023-05-11T15:42:58.492Z,45.58
2023-05-11T15:46:00.642Z,46.08
2023-05-11T15:49:02.477Z,45.92
2023-05-11T15:52:04.435Z,46.14
2023-05-11T15:55:07.322Z,46.74
2023-05-11T15:58:08.949Z,46.82
2023-05-11T16:01:10.510Z,48.28
2023-05-11T16:04:12.113Z,47.50
2023-05-11T16:07:13.799Z,47.67
2023-05-11T16:10:15.372Z,47.33
2023-05-11T16:13:17.027Z,47.08
2023-05-11T16:16:18.751Z,46.46
2023-05-11T16:19:20.378Z,47.40
2023-05-11T16:22:22.436Z,47.52
2023-05-11T16:25:24.165Z,47.07
2023-05-11T16:28:25.974Z,46.79
2023-05-11T16:31:28.878Z,47.73
2023-05-11T16:34:30.601Z,47.79
2023-05-11T16:37:32.212Z,48.02
2023-05-11T16:40:33.775Z,48.34
2023-05-11T16:43:35.564Z,48.58
2023-05-11T16:46:37.275Z,48.76
2023-05-11T16:49:38.844Z,49.64
2023-05-11T16:52:41.337Z,49.58
2023-05-11T16:55:43.038Z,51.06
2023-05-11T16:58:44.752Z,53.22
2023-05-11T17:01:46.447Z,51.95
2023-05-11T17:04:48.978Z,51.94
2023-05-11T17:07:50.904Z,56.06
2023-05-11T17:10:52.570Z,56.60
2023-05-11T17:13:54.244Z,56.49
2023-05-11T17:16:55.836Z,56.52
2023-05-11T17:19:57.806Z,57.77
2023-05-11T17:22:59.575Z,60.95
2023-05-11T17:26:08.540Z,62.56
2023-05-11T17:29:10.081Z,61.61
2023-05-11T17:32:11.897Z,62.06
2023-05-11T17:35:13.639Z,62.44
2023-05-11T17:38:15.216Z,67.66
2023-05-11T17:41:16.777Z,70.96
2023-05-11T17:44:18.359Z,74.84
2023-05-11T17:47:19.976Z,87.49
2023-05-11T17:50:22.191Z,91.38
2023-05-11T17:53:23.834Z,92.86
2023-05-11T17:56:25.524Z,81.86
2023-05-11T17:59:27.314Z,100.00
2023-05-11T18:02:28.998Z,100.00
2023-05-11T18:05:40.403Z,100.00
2023-05-11T18:08:49.195Z,100.00
2023-05-11T18:11:50.743Z,0.00
2023-05-11T18:14:52.343Z,0.00
2023-05-11T18:17:54.503Z,0.00
2023-05-11T18:20:56.546Z,0.00
2023-05-11T18:23:58.178Z,0.00
2023-05-11T18:27:01.203Z,0.00
2023-05-11T18:30:02.983Z,0.00
2023-05-11T18:33:04.653Z,0.00
2023-05-11T18:36:06.597Z,0.00
2023-05-11T18:39:08.306Z,0.00
2023-05-11T18:42:09.897Z,0.00
2023-05-11T18:45:11.772Z,0.00
2023-05-11T18:48:13.422Z,0.00
2023-05-11T18:51:18.877Z,0.00
2023-05-11T18:54:20.470Z,0.00
2023-05-11T18:57:22.570Z,0.00
2023-05-11T19:00:24.657Z,0.00
2023-05-11T19:03:26.676Z,0.00
2023-05-11T19:06:28.313Z,0.00
2023-05-11T19:09:29.950Z,0.00
2023-05-11T19:12:31.639Z,0.00
2023-05-11T19:15:33.729Z,0.00
2023-05-11T19:18:37.056Z,0.00
2023-05-11T19:21:43.333Z,0.00
2023-05-11T19:24:44.925Z,0.00
2023-05-11T19:27:46.549Z,0.00
2023-05-11T19:30:48.111Z,0.00
2023-05-11T19:33:49.703Z,0.00
2023-05-11T19:36:51.355Z,0.00
2023-05-11T19:39:52.914Z,0.00
2023-05-11T19:42:54.489Z,0.00
2023-05-11T19:45:56.155Z,0.00
2023-05-11T19:48:57.801Z,0.00
2023-05-11T19:51:59.406Z,0.00
2023-05-11T19:55:01.064Z,0.00
2023-05-11T19:58:02.723Z,4.75
2023-05-11T20:01:04.953Z,8.68
2023-05-11T20:04:06.699Z,9.96
2023-05-11T20:07:08.451Z,11.25
2023-05-11T20:10:10.467Z,12.79
2023-05-11T20:13:12.054Z,13.38
2023-05-11T20:16:13.959Z,13.91
2023-05-11T20:19:16.049Z,14.65
2023-05-11T20:22:17.850Z,15.28
2023-05-11T20:25:19.419Z,15.88
2023-05-11T20:28:21.557Z,16.36
2023-05-11T20:31:25.874Z,16.75
2023-05-11T20:34:27.929Z,16.74
2023-05-11T20:37:29.492Z,16.63
2023-05-11T20:40:31.113Z,16.96
2023-05-11T20:43:32.778Z,17.32
2023-05-11T20:46:34.338Z,17.38
2023-05-11T20:49:39.173Z,17.34
2023-05-11T20:52:41.161Z,17.39
2023-05-11T20:55:42.748Z,17.62
2023-05-11T20:58:47.419Z,17.96
2023-05-11T21:01:48.993Z,17.68
2023-05-11T21:04:50.554Z,18.14
2023-05-11T21:07:52.197Z,18.09
2023-05-11T21:10:53.788Z,18.57
2023-05-11T21:13:55.333Z,18.33
2023-05-11T21:16:56.948Z,18.69
2023-05-11T21:19:58.550Z,18.74
2023-05-11T21:23:00.470Z,18.70
2023-05-11T21:26:03.222Z,19.12
2023-05-11T21:29:04.907Z,18.86
2023-05-11T21:32:06.935Z,18.55
2023-05-11T21:35:09.021Z,18.73
2023-05-11T21:38:14.922Z,18.94
2023-05-11T21:41:16.978Z,19.08
2023-05-11T21:44:18.571Z,19.07
2023-05-11T21:47:20.168Z,19.28
2023-05-11T21:50:21.918Z,19.17
2023-05-11T21:53:23.901Z,19.46
2023-05-11T21:56:25.619Z,19.51
2023-05-11T21:59:27.571Z,19.42
2023-05-11T22:02:29.243Z,19.78
2023-05-11T22:05:30.869Z,19.69
2023-05-11T22:08:32.466Z,19.69
2023-05-11T22:11:37.977Z,19.80
2023-05-11T22:14:39.578Z,19.69
2023-05-11T22:17:41.185Z,19.84
2023-05-11T22:20:42.759Z,20.09
2023-05-11T22:23:44.349Z,19.88
2023-05-11T22:26:45.900Z,20.01
2023-05-11T22:29:48.052Z,19.82
2023-05-11T22:32:49.670Z,20.10
2023-05-11T22:35:51.322Z,20.59
2023-05-11T22:38:53.132Z,20.34
2023-05-11T22:41:54.967Z,20.17
2023-05-11T22:44:56.869Z,20.52
2023-05-11T22:47:58.620Z,20.63
2023-05-11T22:51:00.177Z,20.92
2023-05-11T22:54:01.731Z,20.98
2023-05-11T22:57:03.744Z,21.29
2023-05-11T23:00:06.043Z,21.20
2023-05-11T23:03:08.269Z,21.10
2023-05-11T23:06:09.941Z,21.49
2023-05-11T23:09:11.503Z,21.63
2023-05-11T23:12:13.495Z,21.58
2023-05-11T23:15:15.421Z,21.87
2023-05-11T23:18:17.152Z,22.09
2023-05-11T23:21:18.710Z,22.06
2023-05-11T23:24:20.410Z,22.47
2023-05-11T23:27:22.045Z,22.64
2023-05-11T23:30:23.705Z,22.74
2023-05-11T23:33:25.426Z,22.96
2023-05-11T23:36:26.983Z,23.23
2023-05-11T23:39:28.598Z,24.95
2023-05-11T23:42:30.573Z,25.17
2023-05-11T23:45:32.221Z,25.37
2023-05-11T23:48:33.877Z,25.21
2023-05-11T23:51:35.495Z,25.60
2023-05-11T23:54:37.050Z,25.70
2023-05-11T23:57:38.656Z,26.17
